createdAt,value
2018-12-09T00:01:51.883Z,1.50
2018-12-09T00:04:55.887Z,1.40
2018-12-09T00:07:59.898Z,1.33
2018-12-09T00:11:04.509Z,1.53
2018-12-09T00:14:08.501Z,1.17
2018-12-09T00:17:12.502Z,1.43
2018-12-09T00:20:16.691Z,1.30
2018-12-09T00:23:20.685Z,1.30
2018-12-09T00:26:24.685Z,1.10
2018-12-09T00:29:28.686Z,1.30
2018-12-09T00:32:32.798Z,1.03
2018-12-09T00:35:36.801Z,1.03
2018-12-09T00:38:40.794Z,1.03
2018-12-09T00:41:44.811Z,0.90
2018-12-09T00:44:48.798Z,0.90
2018-12-09T00:47:52.833Z,1.00
2018-12-09T00:50:56.955Z,1.00
2018-12-09T00:54:01.103Z,1.00
2018-12-09T00:57:05.202Z,0.90
2018-12-09T01:00:12.277Z,0.90
2018-12-09T01:03:17.397Z,0.93
2018-12-09T01:06:21.590Z,1.13
2018-12-09T01:09:25.601Z,0.87
2018-12-09T01:12:29.703Z,0.80
2018-12-09T01:15:33.801Z,0.70
2018-12-09T01:18:37.877Z,0.70
2018-12-09T01:21:42.062Z,0.90
2018-12-09T01:24:46.059Z,0.63
2018-12-09T01:27:50.082Z,0.67
2018-12-09T01:30:54.114Z,0.50
2018-12-09T01:33:58.103Z,0.40
2018-12-09T01:37:02.115Z,0.40
2018-12-09T01:40:06.575Z,0.50
2018-12-09T01:43:10.666Z,0.40
2018-12-09T01:46:14.674Z,0.50
2018-12-09T01:49:19.049Z,0.50
2018-12-09T01:52:23.067Z,0.50
2018-12-09T01:55:27.657Z,0.50
2018-12-09T01:58:31.767Z,0.60
2018-12-09T02:01:36.151Z,0.57
2018-12-09T02:04:40.139Z,0.80
2018-12-09T02:07:44.154Z,0.80
2018-12-09T02:10:48.146Z,1.03
2018-12-09T02:13:52.241Z,0.80
2018-12-09T02:16:56.413Z,1.37
2018-12-09T02:20:00.440Z,1.30
2018-12-09T02:23:04.629Z,1.20
2018-12-09T02:26:08.723Z,1.20
2018-12-09T02:29:12.730Z,1.40
2018-12-09T02:32:16.740Z,1.40
2018-12-09T02:35:20.819Z,1.03
2018-12-09T02:38:24.822Z,1.40
2018-12-09T02:41:28.929Z,1.27
2018-12-09T02:44:32.933Z,1.40
2018-12-09T02:47:36.942Z,1.73
2018-12-09T02:50:40.932Z,1.40
2018-12-09T02:53:45.039Z,1.60
2018-12-09T02:56:49.129Z,2.40
2018-12-09T02:59:53.126Z,1.57
2018-12-09T03:02:57.134Z,2.17
2018-12-09T03:06:01.202Z,2.23
2018-12-09T03:09:07.014Z,1.90
2018-12-09T03:12:11.021Z,1.30
2018-12-09T03:15:15.198Z,1.47
2018-12-09T03:18:19.219Z,1.80
2018-12-09T03:21:23.282Z,1.30
2018-12-09T03:24:27.604Z,1.43
2018-12-09T03:27:31.792Z,1.67
2018-12-09T03:30:35.866Z,2.40
2018-12-09T03:33:39.887Z,2.00
2018-12-09T03:36:43.892Z,2.17
2018-12-09T03:39:47.994Z,2.13
2018-12-09T03:42:52.014Z,2.20
2018-12-09T03:45:56.114Z,1.97
2018-12-09T03:49:00.189Z,1.87
2018-12-09T03:52:04.178Z,2.00
2018-12-09T03:55:08.187Z,1.07
2018-12-09T03:58:12.665Z,0.83
2018-12-09T04:01:17.042Z,1.27
2018-12-09T04:04:21.036Z,1.27
2018-12-09T04:07:25.050Z,1.97
2018-12-09T04:10:29.043Z,1.57
2018-12-09T04:13:33.072Z,1.67
2018-12-09T04:16:37.254Z,1.20
2018-12-09T04:19:41.268Z,1.00
2018-12-09T04:22:45.349Z,1.17
2018-12-09T04:25:49.349Z,0.20
2018-12-09T04:28:53.453Z,0.20
2018-12-09T04:31:57.482Z,0.20
2018-12-09T04:35:01.582Z,0.20
2018-12-09T04:38:05.673Z,0.20
2018-12-09T04:41:09.779Z,0.20
2018-12-09T04:44:13.785Z,0.20
2018-12-09T04:47:17.883Z,0.20
2018-12-09T04:50:21.977Z,0.20
2018-12-09T04:53:26.410Z,0.20
2018-12-09T04:56:30.404Z,0.20
2018-12-09T04:59:37.999Z,0.20
2018-12-09T05:02:42.083Z,0.20
2018-12-09T05:05:46.266Z,0.20
2018-12-09T05:08:50.905Z,0.20
2018-12-09T05:11:54.914Z,0.20
2018-12-09T05:14:58.923Z,0.20
2018-12-09T05:18:03.261Z,0.20
2018-12-09T05:21:07.314Z,0.20
2018-12-09T05:24:11.320Z,0.20
2018-12-09T05:27:15.333Z,0.20
2018-12-09T05:30:19.909Z,0.20
2018-12-09T05:33:23.907Z,0.20
2018-12-09T05:36:27.913Z,0.20
2018-12-09T05:39:31.939Z,0.20
2018-12-09T05:42:35.935Z,0.20
2018-12-09T05:45:40.050Z,0.20
2018-12-09T05:48:44.062Z,0.20
2018-12-09T05:51:48.074Z,0.20
2018-12-09T05:54:52.166Z,0.20
2018-12-09T05:57:56.169Z,0.20
2018-12-09T06:01:00.263Z,0.20
2018-12-09T06:04:04.361Z,0.20
2018-12-09T06:07:08.394Z,0.20
2018-12-09T06:10:12.390Z,0.20
2018-12-09T06:13:16.385Z,0.30
2018-12-09T06:16:20.407Z,0.20
2018-12-09T06:19:24.405Z,0.20
2018-12-09T06:22:28.506Z,0.20
2018-12-09T06:25:32.598Z,0.20
2018-12-09T06:28:37.054Z,0.20
2018-12-09T06:31:41.063Z,0.20
2018-12-09T06:34:45.082Z,0.20
2018-12-09T06:37:49.269Z,0.20
2018-12-09T06:40:53.522Z,0.20
2018-12-09T06:43:57.578Z,0.20
2018-12-09T06:47:01.720Z,0.20
2018-12-09T06:50:08.714Z,0.20
2018-12-09T06:53:12.706Z,0.20
2018-12-09T06:56:16.714Z,0.20
2018-12-09T06:59:21.488Z,0.20
2018-12-09T07:02:26.098Z,0.20
2018-12-09T07:05:30.304Z,0.20
2018-12-09T07:08:34.513Z,0.20
2018-12-09T07:11:38.880Z,0.20
2018-12-09T07:14:43.662Z,0.20
2018-12-09T07:17:47.665Z,0.20
2018-12-09T07:20:51.686Z,0.20
2018-12-09T07:23:55.894Z,0.20
2018-12-09T07:26:59.958Z,0.20
2018-12-09T07:30:04.568Z,0.20
2018-12-09T07:33:08.549Z,0.20
2018-12-09T07:36:12.762Z,0.20
2018-12-09T07:39:17.041Z,0.20
2018-12-09T07:42:21.395Z,0.20
2018-12-09T07:45:25.933Z,0.20
2018-12-09T07:48:29.927Z,0.20
2018-12-09T07:51:34.009Z,0.20
2018-12-09T07:54:38.331Z,0.20
2018-12-09T07:57:42.351Z,0.20
2018-12-09T08:00:46.338Z,0.27
2018-12-09T08:03:50.338Z,0.20
2018-12-09T08:06:54.933Z,0.20
2018-12-09T08:09:58.935Z,0.20
2018-12-09T08:13:03.025Z,0.20
2018-12-09T08:16:07.138Z,0.20
2018-12-09T08:19:11.227Z,0.20
2018-12-09T08:22:15.262Z,0.20
2018-12-09T08:28:21.734Z,0.20
2018-12-09T08:31:25.729Z,0.20
2018-12-09T08:34:29.805Z,0.20
2018-12-09T08:37:33.811Z,0.20
2018-12-09T08:40:37.822Z,0.30
2018-12-09T08:43:41.813Z,0.20
2018-12-09T08:46:45.846Z,0.20
2018-12-09T08:49:49.931Z,0.20
2018-12-09T08:52:54.009Z,0.30
2018-12-09T08:55:58.083Z,0.40
2018-12-09T08:59:02.170Z,0.20
2018-12-09T09:02:06.272Z,0.20
2018-12-09T09:05:10.393Z,0.20
2018-12-09T09:08:14.411Z,0.20
2018-12-09T09:11:18.482Z,0.20
2018-12-09T09:14:22.571Z,0.30
2018-12-09T09:17:26.546Z,0.30
2018-12-09T09:20:30.551Z,0.20
2018-12-09T09:23:34.651Z,0.20
2018-12-09T09:26:38.727Z,0.30
2018-12-09T09:29:42.766Z,0.30
2018-12-09T09:32:46.770Z,0.20
2018-12-09T09:35:50.835Z,0.20
2018-12-09T09:38:55.778Z,0.30
2018-12-09T09:42:00.005Z,0.20
2018-12-09T09:45:04.598Z,0.20
2018-12-09T09:48:08.606Z,0.93
2018-12-09T09:51:12.628Z,1.30
2018-12-09T09:54:16.726Z,1.83
2018-12-09T09:57:20.734Z,1.40
2018-12-09T10:00:24.745Z,1.83
2018-12-09T10:03:28.753Z,3.07
2018-12-09T10:06:32.761Z,1.40
2018-12-09T10:09:36.783Z,2.63
2018-12-09T10:12:40.799Z,1.80
2018-12-09T10:15:44.802Z,1.70
2018-12-09T10:18:48.932Z,1.30
2018-12-09T10:21:52.941Z,1.47
2018-12-09T10:24:56.962Z,1.50
2018-12-09T10:28:00.982Z,1.43
2018-12-09T10:31:05.160Z,1.47
2018-12-09T10:34:09.299Z,1.70
2018-12-09T10:37:13.601Z,1.57
2018-12-09T10:40:17.615Z,1.07
2018-12-09T10:43:21.623Z,1.20
2018-12-09T10:46:25.885Z,1.60
2018-12-09T10:49:31.719Z,1.40
2018-12-09T10:52:36.136Z,1.97
2018-12-09T10:55:40.231Z,1.87
2018-12-09T10:58:44.251Z,1.97
2018-12-09T11:01:52.334Z,1.80
2018-12-09T11:04:56.439Z,1.30
2018-12-09T11:08:00.466Z,2.73
2018-12-09T11:11:04.559Z,1.90
2018-12-09T11:14:08.581Z,2.23
2018-12-09T11:17:12.592Z,1.80
2018-12-09T11:20:16.631Z,1.87
2018-12-09T11:23:20.646Z,1.57
2018-12-09T11:26:24.820Z,1.97
2018-12-09T11:29:28.831Z,2.70
2018-12-09T11:32:32.837Z,2.10
2018-12-09T11:35:36.873Z,1.90
2018-12-09T11:38:40.898Z,1.37
2018-12-09T11:41:45.109Z,1.63
2018-12-09T11:44:49.246Z,2.10
2018-12-09T11:47:53.381Z,1.80
2018-12-09T11:50:57.394Z,2.53
2018-12-09T11:54:01.401Z,1.83
2018-12-09T11:57:05.401Z,1.97
2018-12-09T12:00:12.715Z,2.40
2018-12-09T12:03:16.725Z,1.60
2018-12-09T12:06:20.762Z,1.10
2018-12-09T12:09:25.255Z,1.23
2018-12-09T12:12:29.266Z,1.70
2018-12-09T12:15:33.273Z,1.70
2018-12-09T12:18:37.385Z,2.10
2018-12-09T12:21:41.397Z,2.10
2018-12-09T12:24:45.552Z,1.67
2018-12-09T12:27:49.578Z,1.83
2018-12-09T12:30:53.615Z,1.67
2018-12-09T12:33:57.702Z,2.53
2018-12-09T12:37:01.769Z,1.83
2018-12-09T12:40:06.167Z,1.97
2018-12-09T12:43:10.470Z,2.20
2018-12-09T12:46:14.473Z,2.70
2018-12-09T12:49:18.580Z,2.20
2018-12-09T12:52:22.749Z,2.10
2018-12-09T12:55:26.765Z,2.80
2018-12-09T12:58:30.896Z,2.70
2018-12-09T13:01:34.917Z,3.83
2018-12-09T13:04:38.945Z,2.83
2018-12-09T13:07:43.049Z,1.73
2018-12-09T13:10:47.070Z,1.20
2018-12-09T13:13:51.169Z,1.53
2018-12-09T13:16:55.178Z,2.47
2018-12-09T13:19:59.272Z,2.13
2018-12-09T13:23:03.294Z,1.60
2018-12-09T13:26:07.398Z,1.83
2018-12-09T13:29:11.546Z,2.30
2018-12-09T13:32:15.541Z,1.80
2018-12-09T13:35:19.555Z,1.73
2018-12-09T13:38:23.569Z,2.57
2018-12-09T13:41:27.602Z,2.17
2018-12-09T13:44:31.610Z,1.60
2018-12-09T13:47:35.662Z,2.00
2018-12-09T13:50:39.745Z,2.43
2018-12-09T13:53:43.847Z,4.63
2018-12-09T13:56:47.901Z,3.40
2018-12-09T13:59:51.923Z,3.53
2018-12-09T14:02:55.962Z,3.10
2018-12-09T14:06:00.028Z,3.07
2018-12-09T14:09:06.396Z,2.10
2018-12-09T14:12:10.419Z,1.97
2018-12-09T14:15:15.025Z,2.07
2018-12-09T14:18:19.049Z,2.67
2018-12-09T14:21:23.081Z,2.73
2018-12-09T14:24:27.094Z,2.37
2018-12-09T14:27:31.137Z,3.10
2018-12-09T14:30:35.464Z,1.90
2018-12-09T14:33:39.552Z,1.80
2018-12-09T14:36:43.550Z,2.50
2018-12-09T14:39:47.561Z,2.50
2018-12-09T14:42:51.590Z,2.10
2018-12-09T14:45:55.593Z,2.73
2018-12-09T14:48:59.699Z,9.93
2018-12-09T14:52:03.801Z,13.47
2018-12-09T14:55:07.921Z,6.10
2018-12-09T14:58:11.934Z,5.33
2018-12-09T15:01:16.299Z,2.50
2018-12-09T15:04:20.370Z,3.60
2018-12-09T15:07:24.388Z,1.77
2018-12-09T15:10:28.572Z,2.70
2018-12-09T15:13:32.575Z,1.63
2018-12-09T15:16:36.694Z,2.97
2018-12-09T15:19:40.723Z,2.63
2018-12-09T15:22:44.838Z,2.37
2018-12-09T15:25:48.853Z,3.40
2018-12-09T15:28:52.859Z,4.07
2018-12-09T15:31:56.861Z,3.30
2018-12-09T15:35:01.007Z,1.83
2018-12-09T15:38:05.085Z,1.80
2018-12-09T15:41:09.100Z,1.87
2018-12-09T15:44:13.121Z,1.60
2018-12-09T15:47:17.121Z,1.70
2018-12-09T15:50:21.306Z,1.70
2018-12-09T15:53:25.430Z,1.90
2018-12-09T15:56:29.539Z,2.10
2018-12-09T15:59:33.559Z,2.13
2018-12-09T16:02:37.600Z,2.00
2018-12-09T16:05:41.634Z,1.87
2018-12-09T16:08:45.631Z,1.90
2018-12-09T16:11:49.661Z,1.73
2018-12-09T16:14:53.742Z,1.97
2018-12-09T16:17:57.783Z,2.67
2018-12-09T16:21:01.900Z,6.13
2018-12-09T16:24:06.026Z,3.67
2018-12-09T16:27:10.052Z,2.30
2018-12-09T16:30:14.154Z,1.50
2018-12-09T16:33:18.267Z,2.03
2018-12-09T16:36:22.271Z,2.10
2018-12-09T16:39:26.339Z,1.60
2018-12-09T16:42:30.719Z,1.30
2018-12-09T16:45:34.994Z,2.67
2018-12-09T16:48:39.007Z,1.33
2018-12-09T16:51:43.137Z,1.50
2018-12-09T16:54:47.270Z,1.57
2018-12-09T16:57:51.382Z,1.33
2018-12-09T17:00:55.607Z,2.27
2018-12-09T17:03:59.862Z,1.93
2018-12-09T17:07:04.249Z,2.07
2018-12-09T17:10:08.329Z,2.20
2018-12-09T17:13:12.475Z,2.70
2018-12-09T17:16:16.477Z,1.60
2018-12-09T17:19:20.947Z,2.60
2018-12-09T17:22:25.055Z,1.57
2018-12-09T17:25:29.053Z,1.43
2018-12-09T17:28:33.169Z,2.47
2018-12-09T17:31:37.270Z,1.53
2018-12-09T17:34:41.274Z,1.13
2018-12-09T17:37:45.330Z,2.77
2018-12-09T17:40:49.340Z,1.17
2018-12-09T17:43:53.459Z,2.10
2018-12-09T17:46:57.458Z,2.30
2018-12-09T17:50:01.471Z,1.50
2018-12-09T17:53:06.100Z,2.23
2018-12-09T17:56:10.155Z,3.57
2018-12-09T17:59:14.311Z,5.93
2018-12-09T18:02:18.359Z,2.10
2018-12-09T18:05:22.374Z,1.63
2018-12-09T18:08:26.445Z,2.10
2018-12-09T18:11:30.535Z,1.67
2018-12-09T18:14:34.550Z,1.63
2018-12-09T18:17:38.748Z,1.43
2018-12-09T18:20:43.015Z,2.03
2018-12-09T18:23:47.013Z,2.90
2018-12-09T18:26:51.051Z,2.10
2018-12-09T18:29:55.135Z,2.10
2018-12-09T18:32:59.221Z,2.07
2018-12-09T18:36:03.346Z,1.33
2018-12-09T18:39:07.554Z,2.23
2018-12-09T18:42:11.556Z,1.97
2018-12-09T18:45:15.578Z,1.50
2018-12-09T18:48:19.616Z,1.63
2018-12-09T18:51:23.701Z,1.80
2018-12-09T18:54:27.677Z,1.60
2018-12-09T18:57:31.795Z,1.63
2018-12-09T19:00:35.789Z,2.10
2018-12-09T19:03:39.793Z,2.00
2018-12-09T19:06:44.771Z,2.63
2018-12-09T19:09:48.890Z,1.97
2018-12-09T19:12:54.316Z,2.60
2018-12-09T19:15:58.341Z,3.80
2018-12-09T19:19:02.985Z,3.60
2018-12-09T19:22:06.988Z,3.20
2018-12-09T19:25:11.182Z,2.70
2018-12-09T19:28:15.562Z,2.77
2018-12-09T19:31:20.336Z,2.50
2018-12-09T19:34:25.656Z,2.90
2018-12-09T19:37:29.866Z,2.70
2018-12-09T19:40:35.701Z,4.50
2018-12-09T19:43:40.186Z,4.00
2018-12-09T19:46:45.449Z,4.53
2018-12-09T19:49:49.446Z,2.30
2018-12-09T19:52:53.673Z,3.50
2018-12-09T19:55:57.864Z,2.20
2018-12-09T19:59:01.865Z,2.83
2018-12-09T20:02:06.189Z,2.40
2018-12-09T20:05:10.714Z,3.00
2018-12-09T20:08:14.751Z,3.27
2018-12-09T20:11:18.965Z,2.80
2018-12-09T20:14:22.974Z,3.30
2018-12-09T20:17:26.987Z,3.50
2018-12-09T20:20:31.035Z,4.90
2018-12-09T20:23:35.122Z,4.10
2018-12-09T20:26:39.142Z,3.37
2018-12-09T20:29:43.136Z,8.00
2018-12-09T20:32:47.234Z,4.30
2018-12-09T20:35:51.270Z,2.70
2018-12-09T20:38:55.334Z,4.47
2018-12-09T20:41:59.385Z,3.70
2018-12-09T20:45:04.092Z,2.80
2018-12-09T20:48:13.453Z,2.60
2018-12-09T20:51:14.205Z,3.20
2018-12-09T20:54:18.207Z,3.57
2018-12-09T20:57:22.421Z,2.53
2018-12-09T21:00:26.445Z,3.43
2018-12-09T21:03:30.470Z,2.80
2018-12-09T21:06:34.591Z,2.10
2018-12-09T21:09:38.666Z,2.63
2018-12-09T21:12:42.696Z,2.83
2018-12-09T21:15:46.828Z,2.90
2018-12-09T21:18:50.965Z,2.90
2018-12-09T21:21:55.710Z,2.70
2018-12-09T21:24:59.749Z,2.70
2018-12-09T21:28:03.778Z,3.03
2018-12-09T21:31:07.781Z,3.40
2018-12-09T21:34:11.798Z,4.83
2018-12-09T21:37:15.825Z,3.63
2018-12-09T21:40:21.026Z,3.20
2018-12-09T21:43:25.129Z,3.50
2018-12-09T21:46:29.180Z,3.33
2018-12-09T21:49:33.198Z,4.23
2018-12-09T21:52:37.206Z,3.03
2018-12-09T21:55:41.323Z,3.80
2018-12-09T21:58:45.351Z,4.10
2018-12-09T22:01:49.362Z,3.77
2018-12-09T22:04:53.462Z,3.70
2018-12-09T22:07:57.477Z,2.73
2018-12-09T22:11:01.494Z,2.80
2018-12-09T22:14:05.673Z,3.10
2018-12-09T22:17:09.743Z,2.80
2018-12-09T22:20:13.882Z,3.63
2018-12-09T22:23:17.905Z,3.37
2018-12-09T22:26:22.017Z,3.40
2018-12-09T22:29:26.047Z,3.40
2018-12-09T22:32:30.112Z,3.90
2018-12-09T22:35:35.210Z,3.60
2018-12-09T22:38:39.226Z,4.87
2018-12-09T22:41:43.320Z,4.07
2018-12-09T22:44:47.352Z,3.90
2018-12-09T22:47:51.576Z,4.20
2018-12-09T22:50:55.754Z,3.57
2018-12-09T22:54:00.270Z,3.30
2018-12-09T22:57:04.538Z,4.00
2018-12-09T23:00:30.335Z,3.47
2018-12-09T23:03:34.367Z,3.80
2018-12-09T23:06:38.373Z,3.87
2018-12-09T23:09:42.467Z,3.73
2018-12-09T23:12:46.601Z,2.93
2018-12-09T23:15:50.611Z,2.97
2018-12-09T23:18:54.630Z,3.10
2018-12-09T23:21:58.638Z,3.63
2018-12-09T23:25:02.646Z,3.50
2018-12-09T23:28:06.662Z,3.33
2018-12-09T23:31:10.756Z,2.87
2018-12-09T23:34:14.764Z,3.20
2018-12-09T23:37:18.774Z,2.47
2018-12-09T23:40:22.865Z,1.87
2018-12-09T23:43:26.895Z,1.90
2018-12-09T23:46:30.977Z,1.50
2018-12-09T23:49:35.000Z,1.33
2018-12-09T23:52:38.998Z,1.73
2018-12-09T23:55:43.047Z,1.70
2018-12-09T23:58:47.554Z,2.67
